KGVE/GVE METAR and TAF weather

Enter ICAO airport designator
Station Type Date Time Source
KGVE METAR 2021/01/16 02:55 UTC NOAA

KGVE 160255Z AUTO 00000KT 1/2SM FG BKN005 02/02 A2968 RMK AO1 P0001 60001 T00240024


Station Type Date Time Source
KGVE Decoded METAR 2021/01/16 02:55 UTC NOAA

Station name not available
Jan 15, 2021 - 09:55 PM EST / 2021.01.16 0255 UTC
Wind: Calm:0
Visibility: 1/2 mile(s):0
Sky conditions: mostly cloudy
Weather: fog
Precipitation last hour: 0.01 inches
Temperature: 36.3 F (2.4 C)
Dew Point: 36.3 F (2.4 C)
Relative Humidity: 100%
Pressure (altimeter): 29.68 in. Hg (1005 hPa)
ob: KGVE 160255Z AUTO 00000KT 1/2SM FG BKN005 02/02 A2968 RMK AO1 P0001 60001 T00240024
cycle: 3

Station Type Date Time Source
KGVE TAF UTC NOAA

Error!

Example: see airport list